Hamler, Ohio
Current Conditions -  °F | °C
As of 12:53 PM on Sunday 25 Jan 2015 (Local Time) from KDFI Reporting Station
Light Snow Light Snow  
Wind Chill: 15°   Ceiling: 1300
Heat Index: 27°   Visibility: 1.5mi
Dew Point: 22°   Wind: 15mph
Humidity: 81%   Direction: 50°NE
Pressure: 29.81"   Gusts: 22mph
Location:  41.23°N, 84.03°W
Report Text: KDFI 251753Z AUTO 05013G19KT 1 1/2SM -SN BKN013 OVC030 M03/M06 A2981 RMK AO2 SLP103 P0000 60000 T10281056 10017 21033 50004
Loading
Personal Weather Stations






























Interactive Weather Map New forecast layout! Learn more

10-Day Weather Forecast

Advertisements
Track Severe Weather on mobile